createdAt,value
2019-05-10T00:02:41.323Z,6.30
2019-05-10T00:08:02.995Z,6.40
2019-05-10T00:13:08.256Z,6.60
2019-05-10T00:18:12.705Z,6.20
2019-05-10T00:23:16.327Z,6.20
2019-05-10T00:28:20.095Z,6.50
2019-05-10T00:33:23.751Z,6.30
2019-05-10T00:38:27.383Z,6.30
2019-05-10T00:43:30.989Z,6.30
2019-05-10T00:48:34.579Z,6.60
2019-05-10T00:53:38.303Z,6.30
2019-05-10T00:58:41.963Z,6.10
2019-05-10T01:03:45.555Z,6.40
2019-05-10T01:08:49.136Z,6.20
2019-05-10T01:13:52.799Z,6.40
2019-05-10T01:18:56.368Z,6.20
2019-05-10T01:24:00.027Z,6.20
2019-05-10T01:29:03.750Z,6.10
2019-05-10T01:34:07.407Z,6.50
2019-05-10T01:39:11.004Z,6.60
2019-05-10T01:44:16.670Z,6.50
2019-05-10T01:49:19.965Z,6.80
2019-05-10T01:54:23.600Z,6.60
2019-05-10T01:59:27.325Z,6.90
2019-05-10T02:04:31.024Z,6.90
2019-05-10T02:09:34.685Z,6.60
2019-05-10T02:14:38.311Z,6.80
2019-05-10T02:19:41.921Z,6.90
2019-05-10T02:24:45.639Z,6.80
2019-05-10T02:29:49.275Z,6.90
2019-05-10T02:34:52.871Z,6.90
2019-05-10T02:39:56.467Z,7.10
2019-05-10T02:45:00.111Z,6.90
2019-05-10T02:50:06.123Z,6.70
2019-05-10T02:55:10.041Z,6.90
2019-05-10T03:00:14.748Z,7.00
2019-05-10T03:05:18.445Z,7.20
2019-05-10T03:10:22.120Z,7.10
2019-05-10T03:15:28.806Z,7.10
2019-05-10T03:20:34.985Z,6.80
2019-05-10T03:25:38.756Z,7.00
2019-05-10T03:30:43.018Z,7.20
2019-05-10T03:35:46.771Z,7.10
2019-05-10T03:40:51.604Z,7.40
2019-05-10T03:45:55.317Z,7.40
2019-05-10T03:50:59.313Z,7.50
2019-05-10T03:56:02.973Z,7.50
2019-05-10T04:01:06.578Z,7.80
2019-05-10T04:06:10.348Z,7.90
2019-05-10T04:11:14.060Z,7.90
2019-05-10T04:16:17.717Z,7.80
2019-05-10T04:21:21.327Z,8.00
2019-05-10T04:26:25.087Z,8.10
2019-05-10T04:31:28.747Z,8.20
2019-05-10T04:36:32.635Z,8.30
2019-05-10T04:41:36.322Z,8.20
2019-05-10T04:46:39.977Z,8.30
2019-05-10T04:51:43.729Z,8.20
2019-05-10T04:56:47.294Z,8.40
2019-05-10T05:01:50.987Z,8.50
2019-05-10T05:06:54.690Z,8.60
2019-05-10T05:11:58.341Z,8.50
2019-05-10T05:17:01.997Z,8.70
2019-05-10T05:22:05.636Z,8.80
2019-05-10T05:27:09.308Z,9.00
2019-05-10T05:32:13.487Z,9.10
2019-05-10T05:37:17.233Z,9.20
2019-05-10T05:42:22.270Z,9.20
2019-05-10T05:47:26.208Z,9.30
2019-05-10T05:52:29.963Z,9.30
2019-05-10T05:57:33.568Z,9.30
2019-05-10T06:02:44.222Z,9.40
2019-05-10T06:07:42.430Z,9.60
2019-05-10T06:12:50.333Z,9.80
2019-05-10T06:17:57.172Z,9.90
2019-05-10T06:23:06.657Z,10.10
2019-05-10T06:28:02.203Z,10.20
2019-05-10T06:33:12.672Z,10.30
2019-05-10T06:38:12.163Z,10.40
2019-05-10T06:43:15.907Z,10.60
2019-05-10T06:48:26.990Z,10.80
2019-05-10T06:53:24.903Z,10.90
2019-05-10T06:58:30.451Z,11.00
2019-05-10T07:03:33.792Z,11.10
2019-05-10T07:08:44.219Z,11.20
2019-05-10T07:13:47.050Z,11.30
2019-05-10T07:18:48.131Z,11.30
2019-05-10T07:23:51.775Z,11.50
2019-05-10T07:28:57.394Z,11.40
2019-05-10T07:34:00.920Z,11.60
2019-05-10T07:39:08.255Z,11.70
2019-05-10T07:44:12.022Z,11.70
2019-05-10T07:49:15.739Z,11.80
2019-05-10T07:54:19.351Z,11.90
2019-05-10T07:59:29.057Z,12.00
2019-05-10T08:04:33.342Z,12.00
2019-05-10T08:09:37.117Z,12.10
2019-05-10T08:14:39.512Z,12.20
2019-05-10T08:19:44.590Z,12.00
2019-05-10T08:24:52.635Z,11.80
2019-05-10T08:30:17.906Z,11.80
2019-05-10T08:34:58.997Z,11.80
2019-05-10T08:40:03.251Z,11.90
2019-05-10T08:45:08.944Z,12.10
2019-05-10T08:50:28.899Z,12.20
2019-05-10T08:55:18.735Z,12.30
2019-05-10T09:00:38.289Z,12.40
2019-05-10T09:05:29.359Z,12.60
2019-05-10T09:10:33.415Z,12.60
2019-05-10T09:15:43.247Z,12.80
2019-05-10T09:20:42.483Z,12.90
2019-05-10T09:25:46.235Z,13.10
2019-05-10T09:30:57.494Z,13.60
2019-05-10T09:35:55.361Z,13.70
2019-05-10T09:41:02.263Z,13.90
2019-05-10T09:46:05.150Z,13.90
2019-05-10T09:51:08.753Z,13.70
2019-05-10T09:56:12.487Z,13.70
2019-05-10T10:01:21.227Z,13.90
2019-05-10T10:06:21.375Z,13.80
2019-05-10T10:11:24.940Z,13.60
2019-05-10T10:16:28.762Z,13.80
2019-05-10T10:21:35.517Z,14.10
2019-05-10T10:26:38.015Z,14.00
2019-05-10T10:31:51.508Z,14.30
2019-05-10T10:36:47.550Z,14.60
2019-05-10T10:41:52.193Z,15.20
2019-05-10T10:46:58.199Z,15.30
2019-05-10T10:52:05.689Z,15.10
2019-05-10T10:57:07.996Z,13.30
2019-05-10T11:07:17.167Z,12.50
2019-05-10T11:12:23.988Z,12.80
2019-05-10T11:17:26.155Z,12.90
2019-05-10T11:22:31.804Z,13.00
2019-05-10T11:27:34.979Z,13.10
2019-05-10T11:32:38.610Z,13.40
2019-05-10T11:37:45.552Z,13.80
2019-05-10T11:42:47.804Z,14.50
2019-05-10T11:47:54.470Z,15.50
2019-05-10T11:52:56.900Z,15.50
2019-05-10T12:08:12.971Z,15.80
2019-05-10T12:13:23.593Z,15.60
2019-05-10T12:18:26.874Z,15.10
2019-05-10T12:23:31.333Z,14.30
2019-05-10T12:26:06.158Z,15.80
2019-05-10T12:26:27.034Z,16.20
2019-05-10T12:28:35.487Z,14.20
2019-05-10T12:33:41.626Z,14.20
2019-05-10T12:38:43.520Z,14.00
2019-05-10T12:43:48.500Z,13.90
2019-05-10T12:48:52.730Z,14.10
2019-05-10T12:53:56.292Z,14.50
2019-05-10T12:58:59.938Z,14.80
2019-05-10T13:04:14.045Z,15.30
2019-05-10T13:09:09.222Z,15.60
2019-05-10T13:14:12.863Z,15.40
2019-05-10T13:19:20.133Z,15.80
2019-05-10T13:24:21.875Z,16.20
2019-05-10T13:29:25.535Z,16.30
2019-05-10T13:34:29.222Z,16.10
2019-05-10T13:39:32.916Z,16.30
2019-05-10T13:44:40.571Z,15.20
2019-05-10T13:49:41.987Z,14.50
2019-05-10T13:54:45.740Z,14.20
2019-05-10T13:59:55.093Z,14.00
2019-05-10T14:04:54.809Z,14.10
2019-05-10T14:09:58.555Z,14.60
2019-05-10T14:15:06.092Z,15.20
2019-05-10T14:20:19.561Z,15.30
2019-05-10T14:25:14.646Z,14.80
2019-05-10T14:30:19.344Z,14.40
2019-05-10T14:35:24.550Z,14.30
2019-05-10T14:40:30.672Z,14.20
2019-05-10T14:45:33.539Z,14.10
2019-05-10T14:50:37.783Z,14.00
2019-05-10T14:55:41.465Z,13.80
2019-05-10T15:00:46.081Z,13.90
2019-05-10T15:05:54.994Z,14.00
2019-05-10T15:10:57.112Z,14.10
2019-05-10T15:16:00.403Z,14.20
2019-05-10T15:21:04.293Z,14.60
2019-05-10T15:26:11.492Z,14.90
2019-05-10T15:31:13.358Z,15.00
2019-05-10T15:36:17.093Z,15.40
2019-05-10T15:41:22.329Z,15.30
2019-05-10T15:46:35.710Z,15.20
2019-05-10T15:51:36.396Z,15.10
2019-05-10T15:56:41.482Z,14.80
2019-05-10T16:01:45.446Z,14.70
2019-05-10T16:06:47.627Z,14.80
2019-05-10T16:11:55.872Z,14.70
2019-05-10T16:16:56.601Z,14.70
2019-05-10T16:22:00.561Z,14.80
2019-05-10T16:27:04.295Z,14.80
2019-05-10T16:32:08.320Z,15.00
2019-05-10T16:37:11.954Z,15.10
2019-05-10T16:42:15.545Z,15.10
2019-05-10T16:47:19.321Z,15.20
2019-05-10T16:52:25.938Z,15.00
2019-05-10T16:57:31.983Z,14.60
2019-05-10T17:02:36.674Z,14.50
2019-05-10T17:07:39.087Z,14.50
2019-05-10T17:12:42.795Z,14.40
2019-05-10T17:17:46.487Z,14.30
2019-05-10T17:22:51.449Z,14.00
2019-05-10T17:27:57.397Z,14.00
2019-05-10T17:33:03.988Z,14.00
2019-05-10T17:38:07.834Z,13.90
2019-05-10T17:43:14.141Z,13.90
2019-05-10T17:48:16.409Z,14.00
2019-05-10T17:53:20.107Z,14.20
2019-05-10T17:58:27.978Z,14.20
2019-05-10T18:03:29.279Z,14.30
2019-05-10T18:08:32.954Z,14.10
2019-05-10T18:13:40.978Z,13.90
2019-05-10T18:18:46.713Z,13.50
2019-05-10T18:23:47.366Z,13.30
2019-05-10T18:28:51.108Z,12.40
2019-05-10T18:33:55.973Z,11.80
2019-05-10T18:38:59.755Z,11.00
2019-05-10T18:44:03.532Z,10.60
2019-05-10T18:49:07.213Z,10.00
2019-05-10T18:54:10.792Z,9.80
2019-05-10T18:59:14.435Z,9.50
2019-05-10T19:04:18.065Z,9.20
2019-05-10T19:09:21.719Z,8.90
2019-05-10T19:14:29.560Z,8.70
2019-05-10T19:19:35.188Z,8.60
2019-05-10T19:24:35.755Z,8.50
2019-05-10T19:29:45.597Z,9.10
2019-05-10T19:34:48.475Z,9.60
2019-05-10T19:39:50.208Z,9.70
2019-05-10T19:44:53.815Z,9.80
2019-05-10T19:49:57.424Z,9.90
2019-05-10T19:55:01.047Z,8.90
2019-05-10T20:00:08.648Z,8.50
2019-05-10T20:05:12.587Z,8.40
2019-05-10T20:10:17.162Z,8.50
2019-05-10T20:15:20.898Z,8.60
2019-05-10T20:20:24.615Z,8.70
2019-05-10T20:25:28.341Z,9.00
2019-05-10T20:30:33.006Z,8.90
2019-05-10T20:35:36.760Z,8.30
2019-05-10T20:40:40.516Z,8.40
2019-05-10T20:45:44.196Z,8.40
2019-05-10T20:50:47.829Z,8.00
2019-05-10T20:55:51.495Z,7.90
2019-05-10T21:00:55.251Z,7.40
2019-05-10T21:05:59.032Z,7.90
2019-05-10T21:11:02.966Z,7.60
2019-05-10T21:16:06.572Z,7.60
2019-05-10T21:21:10.148Z,7.80
2019-05-10T21:26:13.792Z,7.80
2019-05-10T21:31:17.603Z,6.90
2019-05-10T21:36:21.267Z,6.90
2019-05-10T21:41:24.923Z,7.00
2019-05-10T21:46:28.508Z,6.70
2019-05-10T21:51:32.104Z,6.40
2019-05-10T21:56:37.156Z,7.00
2019-05-10T22:01:41.204Z,6.70
2019-05-10T22:06:44.792Z,6.80
2019-05-10T22:11:48.444Z,6.80
2019-05-10T22:16:52.171Z,7.10
2019-05-10T22:21:55.910Z,6.70
2019-05-10T22:26:59.479Z,5.80
2019-05-10T22:32:03.155Z,6.10
2019-05-10T22:37:06.902Z,5.70
2019-05-10T22:42:10.602Z,6.10
2019-05-10T22:47:14.255Z,6.30
2019-05-10T22:52:17.868Z,6.10
2019-05-10T22:57:21.575Z,6.20
2019-05-10T23:02:25.164Z,5.60
2019-05-10T23:07:28.774Z,5.50
2019-05-10T23:12:32.446Z,6.10
2019-05-10T23:17:36.078Z,5.80
2019-05-10T23:22:40.251Z,5.50
2019-05-10T23:27:43.933Z,5.40
2019-05-10T23:32:47.596Z,5.20
2019-05-10T23:37:51.276Z,5.30
2019-05-10T23:42:54.983Z,5.40
2019-05-10T23:47:58.884Z,5.30
2019-05-10T23:53:02.553Z,5.50
2019-05-10T23:58:06.381Z,5.40
